createdAt,value
2022-08-17T00:03:27.313Z,21.8
2022-08-17T00:09:21.340Z,21.7
2022-08-17T00:15:14.155Z,21.6
2022-08-17T00:21:10.309Z,21.5
2022-08-17T00:28:10.479Z,21.7
2022-08-17T00:34:07.770Z,21.8
2022-08-17T00:39:59.200Z,21.8
2022-08-17T00:45:49.850Z,21.7
2022-08-17T00:51:42.140Z,21.7
2022-08-17T00:57:32.491Z,21.1
2022-08-17T01:03:25.182Z,21.6
2022-08-17T01:09:16.412Z,21.6
2022-08-17T01:15:06.068Z,21.5
2022-08-17T01:20:55.700Z,21.7
2022-08-17T01:26:45.145Z,21.7
2022-08-17T01:32:36.517Z,21.6
2022-08-17T01:38:26.510Z,21.4
2022-08-17T01:44:17.649Z,21.4
2022-08-17T01:50:06.463Z,21.5
2022-08-17T01:55:55.611Z,21.4
2022-08-17T02:01:47.743Z,21.2
2022-08-17T02:07:48.050Z,21.1
2022-08-17T02:14:20.491Z,21.1
2022-08-17T02:20:11.833Z,21.1
2022-08-17T02:26:28.953Z,20.9
2022-08-17T02:32:20.960Z,20.4
2022-08-17T02:38:16.338Z,20.9
2022-08-17T02:44:06.150Z,20.9
2022-08-17T02:49:55.708Z,20.7
2022-08-17T02:55:47.431Z,20.6
2022-08-17T03:01:44.812Z,20.6
2022-08-17T03:07:33.642Z,20.7
2022-08-17T03:13:24.668Z,21
2022-08-17T03:19:15.680Z,20.6
2022-08-17T03:25:10.561Z,20.9
2022-08-17T03:31:10.237Z,20.6
2022-08-17T03:37:00.625Z,20.9
2022-08-17T03:42:51.760Z,20.9
2022-08-17T03:48:46.132Z,20.9
2022-08-17T03:54:38.943Z,21.1
2022-08-17T04:00:30.429Z,21.2
2022-08-17T04:06:29.927Z,21.4
2022-08-17T04:12:23.028Z,21.3
2022-08-17T04:18:15.721Z,21.3
2022-08-17T04:24:07.333Z,21.4
2022-08-17T04:29:58.198Z,21.5
2022-08-17T04:35:51.678Z,21.6
2022-08-17T04:41:43.204Z,21.5
2022-08-17T04:47:35.337Z,21.5
2022-08-17T04:53:26.578Z,21.5
2022-08-17T04:59:18.175Z,21.4
2022-08-17T05:05:09.680Z,21.5
2022-08-17T05:11:03.072Z,21.6
2022-08-17T05:16:54.820Z,21.7
2022-08-17T05:23:00.732Z,21.7
2022-08-17T05:28:52.255Z,21.8
2022-08-17T05:34:48.529Z,21.5
2022-08-17T05:40:43.656Z,21.7
2022-08-17T05:46:35.426Z,21.8
2022-08-17T05:52:29.758Z,22
2022-08-17T05:58:21.381Z,21.7
2022-08-17T06:04:12.057Z,22
2022-08-17T06:10:04.020Z,21.9
2022-08-17T06:15:56.622Z,22.2
2022-08-17T06:21:48.000Z,22
2022-08-17T06:27:39.784Z,22
2022-08-17T06:33:33.076Z,22.3
2022-08-17T06:39:26.287Z,22.5
2022-08-17T06:45:18.804Z,22.4
2022-08-17T06:51:10.511Z,22.5
2022-08-17T06:57:02.568Z,22.8
2022-08-17T07:02:54.141Z,22.7
2022-08-17T07:08:46.599Z,22.6
2022-08-17T07:14:37.468Z,23
2022-08-17T07:20:29.223Z,22.9
2022-08-17T07:26:20.479Z,22.8
2022-08-17T07:32:13.925Z,23
2022-08-17T07:38:07.262Z,23.3
2022-08-17T07:44:15.689Z,23.3
2022-08-17T07:50:09.631Z,23.3
2022-08-17T07:56:00.938Z,23.4
2022-08-17T08:01:56.208Z,23.5
2022-08-17T08:07:54.709Z,23.7
2022-08-17T08:13:46.858Z,23.8
2022-08-17T08:19:41.896Z,23.8
2022-08-17T08:25:41.078Z,23.8
2022-08-17T08:31:42.429Z,23.7
2022-08-17T08:37:39.167Z,23.6
2022-08-17T08:43:35.833Z,23.4
2022-08-17T08:49:45.528Z,23.5
2022-08-17T08:56:20.535Z,23.5
2022-08-17T09:02:12.523Z,23.5
2022-08-17T09:08:06.655Z,23.5
2022-08-17T09:13:58.911Z,23.5
2022-08-17T09:20:12.608Z,23.4
2022-08-17T09:26:18.324Z,23.2
2022-08-17T09:32:10.999Z,23.5
2022-08-17T09:38:03.779Z,23.8
2022-08-17T09:43:54.587Z,23.8
2022-08-17T09:49:46.948Z,23.8
2022-08-17T09:55:39.267Z,24.1
2022-08-17T10:01:30.826Z,24.2
2022-08-17T10:07:21.792Z,24.3
2022-08-17T10:13:13.874Z,24.6
2022-08-17T10:19:11.709Z,24.9
2022-08-17T10:25:02.162Z,24.6
2022-08-17T10:31:39.622Z,25
2022-08-17T10:37:31.555Z,24.7
2022-08-17T10:43:23.300Z,25.1
2022-08-17T10:49:15.456Z,24.6
2022-08-17T10:55:06.978Z,25
2022-08-17T11:00:59.136Z,24.6
2022-08-17T11:06:51.458Z,25
2022-08-17T11:12:42.310Z,24.8
2022-08-17T11:18:34.583Z,24.8
2022-08-17T11:24:27.045Z,25.1
2022-08-17T11:30:17.377Z,25.2
2022-08-17T11:36:15.172Z,25.6
2022-08-17T11:42:06.948Z,25.8
2022-08-17T11:48:24.182Z,26
2022-08-17T11:54:34.513Z,25.8
2022-08-17T12:00:29.916Z,25.5
2022-08-17T12:06:36.427Z,25.6
2022-08-17T12:12:39.631Z,26.1
2022-08-17T12:18:41.431Z,26.2
2022-08-17T12:24:42.425Z,25.8
2022-08-17T12:30:57.412Z,25.4
2022-08-17T12:37:16.335Z,26
2022-08-17T12:43:14.510Z,25.7
2022-08-17T12:49:05.728Z,25.5
2022-08-17T12:54:57.535Z,26.2
2022-08-17T13:00:48.061Z,26.6
2022-08-17T13:06:38.825Z,26.4
2022-08-17T13:12:30.888Z,26.6
2022-08-17T13:18:23.241Z,26.5
2022-08-17T13:24:16.354Z,26.4
2022-08-17T13:30:07.569Z,26.4
2022-08-17T13:35:57.776Z,26.1
2022-08-17T13:41:51.117Z,26.2
2022-08-17T13:47:41.702Z,26
2022-08-17T13:53:33.179Z,26.2
2022-08-17T13:59:36.310Z,26.3
2022-08-17T14:05:43.309Z,26.1
2022-08-17T14:11:34.200Z,26.7
2022-08-17T14:17:24.446Z,26.3
2022-08-17T14:23:19.957Z,26.6
2022-08-17T14:29:14.923Z,26.5
2022-08-17T14:35:06.526Z,26.8
2022-08-17T14:40:58.102Z,27.1
2022-08-17T14:46:49.104Z,27.1
2022-08-17T14:52:41.666Z,26.9
2022-08-17T14:58:32.512Z,26.6
2022-08-17T15:04:26.729Z,26.6
2022-08-17T15:10:17.875Z,26.5
2022-08-17T15:16:11.130Z,26.3
2022-08-17T15:22:02.879Z,26.4
2022-08-17T15:27:53.943Z,26.2
2022-08-17T15:33:45.302Z,26.4
2022-08-17T15:39:37.467Z,26.8
2022-08-17T15:45:28.774Z,26.3
2022-08-17T15:51:19.338Z,26.9
2022-08-17T15:57:10.874Z,26.7
2022-08-17T16:03:16.225Z,26.8
2022-08-17T16:10:18.761Z,26.9
2022-08-17T16:16:21.691Z,26.6
2022-08-17T16:22:12.151Z,26.8
2022-08-17T16:28:04.516Z,27.3
2022-08-17T16:33:58.534Z,27.2
2022-08-17T16:40:07.121Z,27.2
2022-08-17T16:45:58.070Z,27.3
2022-08-17T16:51:48.162Z,26.9
2022-08-17T16:57:46.101Z,27
2022-08-17T17:03:39.443Z,26.9
2022-08-17T17:09:30.645Z,27
2022-08-17T17:15:22.185Z,26.9
2022-08-17T17:21:12.876Z,26.6
2022-08-17T17:27:07.355Z,26.7
2022-08-17T17:32:57.344Z,26.6
2022-08-17T17:38:47.457Z,26.3
2022-08-17T17:44:37.977Z,26.3
2022-08-17T17:50:33.779Z,26.2
2022-08-17T17:56:43.602Z,26.2
2022-08-17T18:02:32.855Z,26
2022-08-17T18:08:32.004Z,25.9
2022-08-17T18:14:22.973Z,25.7
2022-08-17T18:20:13.992Z,25.7
2022-08-17T18:26:19.554Z,25.6
2022-08-17T18:32:16.445Z,25.3
2022-08-17T18:38:07.068Z,25.1
2022-08-17T18:44:06.103Z,25.1
2022-08-17T18:49:56.495Z,24.8
2022-08-17T18:55:47.595Z,24.9
2022-08-17T19:01:41.629Z,24.6
2022-08-17T19:08:08.857Z,24.5
2022-08-17T19:14:01.319Z,24.3
2022-08-17T19:19:53.840Z,24.2
2022-08-17T19:25:43.989Z,24.1
2022-08-17T19:31:37.974Z,24.1
2022-08-17T19:37:28.830Z,24.1
2022-08-17T19:43:19.112Z,24
2022-08-17T19:49:09.676Z,23.9
2022-08-17T19:55:00.379Z,24
2022-08-17T20:00:51.174Z,24
2022-08-17T20:06:41.745Z,23.9
2022-08-17T20:12:33.211Z,23.9
2022-08-17T20:18:23.594Z,23.5
2022-08-17T20:24:14.634Z,23.7
2022-08-17T20:30:05.578Z,23.2
2022-08-17T20:35:57.670Z,23.2
2022-08-17T20:41:48.322Z,23.1
2022-08-17T20:47:50.598Z,23.1
2022-08-17T20:54:24.821Z,23.1
2022-08-17T21:00:16.349Z,22.9
2022-08-17T21:12:05.186Z,22.5
2022-08-17T21:17:59.497Z,22.6
2022-08-17T21:23:52.487Z,22.3
2022-08-17T21:29:43.253Z,22.4
2022-08-17T21:35:41.821Z,22
2022-08-17T21:41:33.275Z,22.3
2022-08-17T21:47:23.537Z,22.1
2022-08-17T21:53:13.123Z,22.3
2022-08-17T21:59:04.921Z,22.3
2022-08-17T22:04:55.701Z,22.3
2022-08-17T22:10:46.263Z,22.1
2022-08-17T22:16:37.316Z,22
2022-08-17T22:22:32.253Z,21.8
2022-08-17T22:28:23.260Z,22
2022-08-17T22:34:17.714Z,21.9
2022-08-17T22:40:10.802Z,21.7
2022-08-17T22:46:02.101Z,21.5
2022-08-17T22:51:52.574Z,21.5
2022-08-17T22:57:44.673Z,21.5
2022-08-17T23:03:36.135Z,21
2022-08-17T23:09:27.889Z,21.2
2022-08-17T23:15:19.269Z,21.2
2022-08-17T23:21:10.109Z,21.3
2022-08-17T23:27:19.797Z,21.2
2022-08-17T23:33:10.552Z,21.2
2022-08-17T23:39:01.189Z,21
2022-08-17T23:44:52.273Z,21
2022-08-17T23:50:42.961Z,20.9
2022-08-17T23:56:33.227Z,20.7
